sensor_id;sensor_type;location;lat;lon;timestamp;temperature;humidity
36186;DHT22;22228;53.222;7.446;2023-10-31T00:01:52;11.60;99.90
36186;DHT22;22228;53.222;7.446;2023-10-31T00:04:14;11.60;99.90
36186;DHT22;22228;53.222;7.446;2023-10-31T00:06:35;11.50;99.90
36186;DHT22;22228;53.222;7.446;2023-10-31T00:08:56;11.50;99.90
36186;DHT22;22228;53.222;7.446;2023-10-31T00:11:16;11.50;99.90
36186;DHT22;22228;53.222;7.446;2023-10-31T00:13:37;11.50;99.90
36186;DHT22;22228;53.222;7.446;2023-10-31T00:15:58;11.50;99.90
36186;DHT22;22228;53.222;7.446;2023-10-31T00:18:18;11.50;99.90
36186;DHT22;22228;53.222;7.446;2023-10-31T00:20:41;11.40;99.90
36186;DHT22;22228;53.222;7.446;2023-10-31T00:23:01;11.40;99.90
36186;DHT22;22228;53.222;7.446;2023-10-31T00:25:22;11.40;99.90
36186;DHT22;22228;53.222;7.446;2023-10-31T00:27:42;11.40;99.90
36186;DHT22;22228;53.222;7.446;2023-10-31T00:30:04;11.40;99.90
36186;DHT22;22228;53.222;7.446;2023-10-31T00:32:25;11.40;99.90
36186;DHT22;22228;53.222;7.446;2023-10-31T00:34:48;11.40;99.90
36186;DHT22;22228;53.222;7.446;2023-10-31T00:37:10;11.40;99.90
36186;DHT22;22228;53.222;7.446;2023-10-31T00:39:31;11.40;99.90
36186;DHT22;22228;53.222;7.446;2023-10-31T00:41:53;11.40;99.90
36186;DHT22;22228;53.222;7.446;2023-10-31T00:44:15;11.40;99.90
36186;DHT22;22228;53.222;7.446;2023-10-31T00:46:35;11.40;99.90
36186;DHT22;22228;53.222;7.446;2023-10-31T00:48:56;11.30;99.90
36186;DHT22;22228;53.222;7.446;2023-10-31T00:51:17;11.30;99.90
36186;DHT22;22228;53.222;7.446;2023-10-31T00:53:38;11.30;99.90
36186;DHT22;22228;53.222;7.446;2023-10-31T00:55:59;11.30;99.90
36186;DHT22;22228;53.222;7.446;2023-10-31T00:58:20;11.40;99.90
36186;DHT22;22228;53.222;7.446;2023-10-31T01:00:41;11.30;99.90
36186;DHT22;22228;53.222;7.446;2023-10-31T01:03:01;11.30;99.90
36186;DHT22;22228;53.222;7.446;2023-10-31T01:05:22;11.40;99.90
36186;DHT22;22228;53.222;7.446;2023-10-31T01:07:43;11.40;99.90
36186;DHT22;22228;53.222;7.446;2023-10-31T01:10:06;11.30;99.90
36186;DHT22;22228;53.222;7.446;2023-10-31T01:12:26;11.30;99.90
36186;DHT22;22228;53.222;7.446;2023-10-31T01:14:47;11.30;99.90
36186;DHT22;22228;53.222;7.446;2023-10-31T04:01:52;10.10;99.90
36186;DHT22;22228;53.222;7.446;2023-10-31T04:04:12;10.10;99.90
36186;DHT22;22228;53.222;7.446;2023-10-31T04:06:32;10.10;99.90
36186;DHT22;22228;53.222;7.446;2023-10-31T04:08:53;10.10;99.90
36186;DHT22;22228;53.222;7.446;2023-10-31T04:11:13;10.10;99.90
36186;DHT22;22228;53.222;7.446;2023-10-31T04:13:34;10.10;99.90
36186;DHT22;22228;53.222;7.446;2023-10-31T04:15:54;10.10;99.90
36186;DHT22;22228;53.222;7.446;2023-10-31T04:18:16;10.10;99.90
36186;DHT22;22228;53.222;7.446;2023-10-31T04:20:37;10.10;99.90
36186;DHT22;22228;53.222;7.446;2023-10-31T04:22:56;10.10;99.90
36186;DHT22;22228;53.222;7.446;2023-10-31T04:25:17;10.10;99.90
36186;DHT22;22228;53.222;7.446;2023-10-31T04:27:37;10.20;99.90
36186;DHT22;22228;53.222;7.446;2023-10-31T04:29:58;10.20;99.90
36186;DHT22;22228;53.222;7.446;2023-10-31T04:32:18;10.20;99.90
36186;DHT22;22228;53.222;7.446;2023-10-31T04:34:40;10.10;99.90
36186;DHT22;22228;53.222;7.446;2023-10-31T04:37:01;10.10;99.90
36186;DHT22;22228;53.222;7.446;2023-10-31T04:39:22;10.10;99.90
36186;DHT22;22228;53.222;7.446;2023-10-31T04:41:42;10.10;99.90
36186;DHT22;22228;53.222;7.446;2023-10-31T04:44:03;10.10;99.90
36186;DHT22;22228;53.222;7.446;2023-10-31T04:46:24;10.10;99.90
36186;DHT22;22228;53.222;7.446;2023-10-31T04:48:46;10.10;99.90
36186;DHT22;22228;53.222;7.446;2023-10-31T04:51:08;10.10;99.90
36186;DHT22;22228;53.222;7.446;2023-10-31T04:53:28;10.10;99.90
36186;DHT22;22228;53.222;7.446;2023-10-31T04:55:49;10.10;99.90
36186;DHT22;22228;53.222;7.446;2023-10-31T04:58:09;10.10;99.90
36186;DHT22;22228;53.222;7.446;2023-10-31T05:00:30;10.10;99.90
36186;DHT22;22228;53.222;7.446;2023-10-31T05:02:50;10.10;99.90
36186;DHT22;22228;53.222;7.446;2023-10-31T05:05:11;10.10;99.90
36186;DHT22;22228;53.222;7.446;2023-10-31T05:07:33;10.10;99.90
36186;DHT22;22228;53.222;7.446;2023-10-31T05:09:54;10.10;99.90
36186;DHT22;22228;53.222;7.446;2023-10-31T05:12:15;10.00;99.90
36186;DHT22;22228;53.222;7.446;2023-10-31T05:14:35;10.00;99.90
36186;DHT22;22228;53.222;7.446;2023-10-31T05:16:56;10.00;99.90
36186;DHT22;22228;53.222;7.446;2023-10-31T05:19:17;10.10;99.90
36186;DHT22;22228;53.222;7.446;2023-10-31T05:21:37;10.00;99.90
36186;DHT22;22228;53.222;7.446;2023-10-31T05:23:59;10.00;99.90
36186;DHT22;22228;53.222;7.446;2023-10-31T05:26:20;10.00;99.90
36186;DHT22;22228;53.222;7.446;2023-10-31T05:28:40;10.00;99.90
36186;DHT22;22228;53.222;7.446;2023-10-31T05:31:02;10.00;99.90
36186;DHT22;22228;53.222;7.446;2023-10-31T05:33:22;10.00;99.90
36186;DHT22;22228;53.222;7.446;2023-10-31T05:35:43;10.00;99.90
36186;DHT22;22228;53.222;7.446;2023-10-31T05:38:03;10.00;99.90
36186;DHT22;22228;53.222;7.446;2023-10-31T05:40:25;10.00;99.90
36186;DHT22;22228;53.222;7.446;2023-10-31T05:42:47;10.00;99.90
36186;DHT22;22228;53.222;7.446;2023-10-31T05:45:08;10.00;99.90
36186;DHT22;22228;53.222;7.446;2023-10-31T05:47:28;10.00;99.90
36186;DHT22;22228;53.222;7.446;2023-10-31T05:49:49;10.00;99.90
36186;DHT22;22228;53.222;7.446;2023-10-31T05:52:10;10.00;99.90
36186;DHT22;22228;53.222;7.446;2023-10-31T05:54:30;10.00;99.90
36186;DHT22;22228;53.222;7.446;2023-10-31T05:56:52;10.00;99.90
36186;DHT22;22228;53.222;7.446;2023-10-31T05:59:13;10.00;99.90
36186;DHT22;22228;53.222;7.446;2023-10-31T06:01:33;10.00;99.90
36186;DHT22;22228;53.222;7.446;2023-10-31T06:03:54;10.00;99.90
36186;DHT22;22228;53.222;7.446;2023-10-31T06:06:14;10.00;99.90
36186;DHT22;22228;53.222;7.446;2023-10-31T06:08:34;9.90;99.90
36186;DHT22;22228;53.222;7.446;2023-10-31T06:10:55;9.90;99.90
36186;DHT22;22228;53.222;7.446;2023-10-31T06:13:17;9.90;99.90
36186;DHT22;22228;53.222;7.446;2023-10-31T06:15:38;9.90;99.90
36186;DHT22;22228;53.222;7.446;2023-10-31T06:17:58;9.90;99.90
36186;DHT22;22228;53.222;7.446;2023-10-31T06:20:18;9.90;99.90
36186;DHT22;22228;53.222;7.446;2023-10-31T06:22:39;9.90;99.90
36186;DHT22;22228;53.222;7.446;2023-10-31T06:25:00;9.90;99.90
36186;DHT22;22228;53.222;7.446;2023-10-31T06:27:21;9.80;99.90
36186;DHT22;22228;53.222;7.446;2023-10-31T06:29:43;9.80;99.90
36186;DHT22;22228;53.222;7.446;2023-10-31T06:32:04;9.80;99.90
36186;DHT22;22228;53.222;7.446;2023-10-31T06:34:24;9.80;99.90
36186;DHT22;22228;53.222;7.446;2023-10-31T06:36:45;9.80;99.90
36186;DHT22;22228;53.222;7.446;2023-10-31T06:39:05;9.70;99.90
36186;DHT22;22228;53.222;7.446;2023-10-31T06:41:26;9.70;99.90
36186;DHT22;22228;53.222;7.446;2023-10-31T06:43:46;9.70;99.90
36186;DHT22;22228;53.222;7.446;2023-10-31T06:46:08;9.70;99.90
36186;DHT22;22228;53.222;7.446;2023-10-31T06:48:29;9.70;99.90
36186;DHT22;22228;53.222;7.446;2023-10-31T06:50:49;9.70;99.90
36186;DHT22;22228;53.222;7.446;2023-10-31T06:53:10;9.70;99.90
36186;DHT22;22228;53.222;7.446;2023-10-31T06:55:30;9.70;99.90
36186;DHT22;22228;53.222;7.446;2023-10-31T06:57:50;9.70;99.90
36186;DHT22;22228;53.222;7.446;2023-10-31T07:00:12;9.80;99.90
36186;DHT22;22228;53.222;7.446;2023-10-31T07:02:34;9.80;99.90
36186;DHT22;22228;53.222;7.446;2023-10-31T07:04:55;9.90;99.90
36186;DHT22;22228;53.222;7.446;2023-10-31T07:07:15;9.90;99.90
36186;DHT22;22228;53.222;7.446;2023-10-31T07:09:36;9.90;99.90
36186;DHT22;22228;53.222;7.446;2023-10-31T07:11:56;10.00;99.90
36186;DHT22;22228;53.222;7.446;2023-10-31T07:14:17;10.00;99.90
36186;DHT22;22228;53.222;7.446;2023-10-31T07:16:38;10.10;99.90
36186;DHT22;22228;53.222;7.446;2023-10-31T07:19:00;10.10;99.90
36186;DHT22;22228;53.222;7.446;2023-10-31T07:21:21;10.10;99.90
36186;DHT22;22228;53.222;7.446;2023-10-31T07:23:41;10.10;99.90
36186;DHT22;22228;53.222;7.446;2023-10-31T07:26:03;10.10;99.90
36186;DHT22;22228;53.222;7.446;2023-10-31T07:28:24;10.10;99.90
36186;DHT22;22228;53.222;7.446;2023-10-31T07:30:45;10.20;99.90
36186;DHT22;22228;53.222;7.446;2023-10-31T07:33:05;10.20;99.90
36186;DHT22;22228;53.222;7.446;2023-10-31T07:35:27;10.20;99.90
36186;DHT22;22228;53.222;7.446;2023-10-31T07:37:47;10.20;99.90
36186;DHT22;22228;53.222;7.446;2023-10-31T07:40:09;10.20;99.90
36186;DHT22;22228;53.222;7.446;2023-10-31T07:42:29;10.20;99.90
36186;DHT22;22228;53.222;7.446;2023-10-31T07:44:50;10.20;99.90
36186;DHT22;22228;53.222;7.446;2023-10-31T07:47:11;10.20;99.90
36186;DHT22;22228;53.222;7.446;2023-10-31T07:49:31;10.20;99.90
36186;DHT22;22228;53.222;7.446;2023-10-31T07:51:53;10.20;99.90
36186;DHT22;22228;53.222;7.446;2023-10-31T07:54:14;10.20;99.90
36186;DHT22;22228;53.222;7.446;2023-10-31T07:56:35;10.20;99.90
36186;DHT22;22228;53.222;7.446;2023-10-31T07:58:56;10.30;99.90
36186;DHT22;22228;53.222;7.446;2023-10-31T08:01:17;10.30;99.90
36186;DHT22;22228;53.222;7.446;2023-10-31T08:03:38;10.30;99.90
36186;DHT22;22228;53.222;7.446;2023-10-31T08:05:58;10.30;99.90
36186;DHT22;22228;53.222;7.446;2023-10-31T08:08:20;10.30;99.90
36186;DHT22;22228;53.222;7.446;2023-10-31T08:10:41;10.30;99.90
36186;DHT22;22228;53.222;7.446;2023-10-31T08:13:02;10.30;99.90
36186;DHT22;22228;53.222;7.446;2023-10-31T08:15:22;10.30;99.90
36186;DHT22;22228;53.222;7.446;2023-10-31T08:17:43;10.30;99.90
36186;DHT22;22228;53.222;7.446;2023-10-31T08:20:04;10.30;99.90
36186;DHT22;22228;53.222;7.446;2023-10-31T08:22:25;10.30;99.90
36186;DHT22;22228;53.222;7.446;2023-10-31T08:24:47;10.30;99.90
36186;DHT22;22228;53.222;7.446;2023-10-31T08:27:08;10.40;99.90
36186;DHT22;22228;53.222;7.446;2023-10-31T08:29:29;10.40;99.90
36186;DHT22;22228;53.222;7.446;2023-10-31T08:31:50;10.40;99.90
36186;DHT22;22228;53.222;7.446;2023-10-31T08:34:10;10.40;99.90
36186;DHT22;22228;53.222;7.446;2023-10-31T08:36:31;10.40;99.90
36186;DHT22;22228;53.222;7.446;2023-10-31T08:38:51;10.40;99.90
36186;DHT22;22228;53.222;7.446;2023-10-31T08:41:13;10.40;99.90
36186;DHT22;22228;53.222;7.446;2023-10-31T08:43:39;10.50;99.90
36186;DHT22;22228;53.222;7.446;2023-10-31T08:45:59;10.50;99.90
36186;DHT22;22228;53.222;7.446;2023-10-31T08:48:20;10.50;99.90
36186;DHT22;22228;53.222;7.446;2023-10-31T08:50:40;10.50;99.90
36186;DHT22;22228;53.222;7.446;2023-10-31T08:53:01;10.60;99.90
36186;DHT22;22228;53.222;7.446;2023-10-31T08:55:21;10.60;99.90
36186;DHT22;22228;53.222;7.446;2023-10-31T08:57:43;10.70;99.90
36186;DHT22;22228;53.222;7.446;2023-10-31T09:00:05;10.70;99.90
36186;DHT22;22228;53.222;7.446;2023-10-31T09:02:26;10.80;99.90
36186;DHT22;22228;53.222;7.446;2023-10-31T09:04:46;10.80;99.90
36186;DHT22;22228;53.222;7.446;2023-10-31T09:07:07;10.80;99.90
36186;DHT22;22228;53.222;7.446;2023-10-31T09:09:28;10.80;99.90
36186;DHT22;22228;53.222;7.446;2023-10-31T09:11:49;10.90;99.90
36186;DHT22;22228;53.222;7.446;2023-10-31T09:14:11;10.90;99.90
36186;DHT22;22228;53.222;7.446;2023-10-31T09:16:31;10.90;99.90
36186;DHT22;22228;53.222;7.446;2023-10-31T09:18:52;11.00;99.90
36186;DHT22;22228;53.222;7.446;2023-10-31T09:21:13;11.10;99.90
36186;DHT22;22228;53.222;7.446;2023-10-31T09:23:33;11.10;99.90
36186;DHT22;22228;53.222;7.446;2023-10-31T09:25:54;11.20;99.90
36186;DHT22;22228;53.222;7.446;2023-10-31T09:28:15;11.20;99.90
36186;DHT22;22228;53.222;7.446;2023-10-31T09:30:37;11.20;99.90
36186;DHT22;22228;53.222;7.446;2023-10-31T09:32:58;11.30;99.90
36186;DHT22;22228;53.222;7.446;2023-10-31T09:35:18;11.40;99.90
36186;DHT22;22228;53.222;7.446;2023-10-31T09:37:40;11.40;99.90
36186;DHT22;22228;53.222;7.446;2023-10-31T09:40:02;11.50;99.90
36186;DHT22;22228;53.222;7.446;2023-10-31T09:42:22;11.60;99.90
36186;DHT22;22228;53.222;7.446;2023-10-31T09:44:43;11.60;99.90
36186;DHT22;22228;53.222;7.446;2023-10-31T09:47:06;11.60;99.90
36186;DHT22;22228;53.222;7.446;2023-10-31T09:49:27;11.60;99.90
36186;DHT22;22228;53.222;7.446;2023-10-31T09:51:47;11.60;99.90
36186;DHT22;22228;53.222;7.446;2023-10-31T09:54:09;11.70;99.90
36186;DHT22;22228;53.222;7.446;2023-10-31T09:56:32;11.80;99.90
36186;DHT22;22228;53.222;7.446;2023-10-31T09:58:54;11.80;99.90
36186;DHT22;22228;53.222;7.446;2023-10-31T10:01:14;11.90;99.90
36186;DHT22;22228;53.222;7.446;2023-10-31T10:03:36;11.90;99.90
36186;DHT22;22228;53.222;7.446;2023-10-31T10:05:57;11.90;99.90
36186;DHT22;22228;53.222;7.446;2023-10-31T10:08:19;11.90;99.90
36186;DHT22;22228;53.222;7.446;2023-10-31T10:10:40;11.90;99.90
36186;DHT22;22228;53.222;7.446;2023-10-31T10:13:02;12.00;99.90
36186;DHT22;22228;53.222;7.446;2023-10-31T10:15:23;11.90;99.90
36186;DHT22;22228;53.222;7.446;2023-10-31T10:17:48;11.80;99.90
36186;DHT22;22228;53.222;7.446;2023-10-31T10:20:11;11.70;99.90
36186;DHT22;22228;53.222;7.446;2023-10-31T10:22:32;11.70;99.90
36186;DHT22;22228;53.222;7.446;2023-10-31T10:24:52;11.50;99.90
36186;DHT22;22228;53.222;7.446;2023-10-31T10:27:13;11.40;99.90
36186;DHT22;22228;53.222;7.446;2023-10-31T10:29:33;11.30;99.90
36186;DHT22;22228;53.222;7.446;2023-10-31T10:31:54;11.30;99.90
36186;DHT22;22228;53.222;7.446;2023-10-31T10:34:15;11.30;99.90
36186;DHT22;22228;53.222;7.446;2023-10-31T10:36:38;11.20;99.90
36186;DHT22;22228;53.222;7.446;2023-10-31T10:38:59;11.20;99.90
36186;DHT22;22228;53.222;7.446;2023-10-31T10:41:20;11.10;99.90
36186;DHT22;22228;53.222;7.446;2023-10-31T10:43:42;11.10;99.90
36186;DHT22;22228;53.222;7.446;2023-10-31T10:46:04;11.10;99.90
36186;DHT22;22228;53.222;7.446;2023-10-31T10:48:28;11.10;99.90
36186;DHT22;22228;53.222;7.446;2023-10-31T10:51:03;11.10;99.90
36186;DHT22;22228;53.222;7.446;2023-10-31T10:53:30;11.10;99.90
36186;DHT22;22228;53.222;7.446;2023-10-31T10:55:57;11.20;99.90
36186;DHT22;22228;53.222;7.446;2023-10-31T10:58:24;11.20;99.90
36186;DHT22;22228;53.222;7.446;2023-10-31T11:00:47;11.20;99.90
36186;DHT22;22228;53.222;7.446;2023-10-31T11:03:09;11.20;99.90
36186;DHT22;22228;53.222;7.446;2023-10-31T11:05:30;11.30;99.90
36186;DHT22;22228;53.222;7.446;2023-10-31T11:07:52;11.20;99.90
36186;DHT22;22228;53.222;7.446;2023-10-31T11:10:17;11.20;99.90
36186;DHT22;22228;53.222;7.446;2023-10-31T11:12:38;11.30;99.90
36186;DHT22;22228;53.222;7.446;2023-10-31T11:14:59;11.30;99.90
36186;DHT22;22228;53.222;7.446;2023-10-31T11:17:24;11.30;99.90
36186;DHT22;22228;53.222;7.446;2023-10-31T11:19:46;11.20;99.90
36186;DHT22;22228;53.222;7.446;2023-10-31T11:22:07;11.10;99.90
36186;DHT22;22228;53.222;7.446;2023-10-31T11:24:28;11.20;99.90
36186;DHT22;22228;53.222;7.446;2023-10-31T11:26:53;11.30;99.90
36186;DHT22;22228;53.222;7.446;2023-10-31T11:29:13;11.30;99.90
36186;DHT22;22228;53.222;7.446;2023-10-31T11:31:34;11.30;99.90
36186;DHT22;22228;53.222;7.446;2023-10-31T11:33:57;11.40;99.90
36186;DHT22;22228;53.222;7.446;2023-10-31T11:36:19;11.50;99.90
36186;DHT22;22228;53.222;7.446;2023-10-31T11:38:40;11.50;99.90
36186;DHT22;22228;53.222;7.446;2023-10-31T11:41:02;11.40;99.90
36186;DHT22;22228;53.222;7.446;2023-10-31T11:43:24;11.40;99.90
36186;DHT22;22228;53.222;7.446;2023-10-31T11:45:45;11.50;99.90
36186;DHT22;22228;53.222;7.446;2023-10-31T11:48:06;11.70;99.90
36186;DHT22;22228;53.222;7.446;2023-10-31T11:50:27;11.70;99.90
36186;DHT22;22228;53.222;7.446;2023-10-31T11:53:02;11.70;99.90
36186;DHT22;22228;53.222;7.446;2023-10-31T11:55:24;11.70;99.90
36186;DHT22;22228;53.222;7.446;2023-10-31T11:57:44;11.50;99.90
36186;DHT22;22228;53.222;7.446;2023-10-31T12:00:20;11.40;99.90
36186;DHT22;22228;53.222;7.446;2023-10-31T12:02:41;11.20;99.90
36186;DHT22;22228;53.222;7.446;2023-10-31T12:05:09;11.10;99.90
36186;DHT22;22228;53.222;7.446;2023-10-31T12:07:29;11.10;99.90
36186;DHT22;22228;53.222;7.446;2023-10-31T12:09:51;11.10;99.90
36186;DHT22;22228;53.222;7.446;2023-10-31T12:12:11;11.10;99.90
36186;DHT22;22228;53.222;7.446;2023-10-31T12:14:32;11.10;99.90
36186;DHT22;22228;53.222;7.446;2023-10-31T12:16:54;11.20;99.90
36186;DHT22;22228;53.222;7.446;2023-10-31T12:19:14;11.30;99.90
36186;DHT22;22228;53.222;7.446;2023-10-31T12:21:39;11.40;99.90
36186;DHT22;22228;53.222;7.446;2023-10-31T12:24:03;11.30;99.90
36186;DHT22;22228;53.222;7.446;2023-10-31T12:26:23;11.20;99.90
36186;DHT22;22228;53.222;7.446;2023-10-31T12:28:44;11.20;99.90
36186;DHT22;22228;53.222;7.446;2023-10-31T12:31:04;11.10;99.90
36186;DHT22;22228;53.222;7.446;2023-10-31T12:33:28;11.10;99.90
36186;DHT22;22228;53.222;7.446;2023-10-31T12:35:49;11.10;99.90
36186;DHT22;22228;53.222;7.446;2023-10-31T12:38:10;11.20;99.90
36186;DHT22;22228;53.222;7.446;2023-10-31T12:40:31;11.40;99.90
36186;DHT22;22228;53.222;7.446;2023-10-31T12:42:52;11.70;99.90
36186;DHT22;22228;53.222;7.446;2023-10-31T12:45:13;11.90;99.90
36186;DHT22;22228;53.222;7.446;2023-10-31T12:47:34;12.00;99.90
36186;DHT22;22228;53.222;7.446;2023-10-31T12:50:09;12.10;99.90
36186;DHT22;22228;53.222;7.446;2023-10-31T12:52:46;12.20;99.90
36186;DHT22;22228;53.222;7.446;2023-10-31T12:55:12;12.10;99.90
36186;DHT22;22228;53.222;7.446;2023-10-31T12:57:35;12.10;99.90
36186;DHT22;22228;53.222;7.446;2023-10-31T12:59:56;12.10;99.90
36186;DHT22;22228;53.222;7.446;2023-10-31T13:02:17;12.10;99.90
36186;DHT22;22228;53.222;7.446;2023-10-31T13:04:37;12.00;99.90
36186;DHT22;22228;53.222;7.446;2023-10-31T13:07:01;11.80;99.90
36186;DHT22;22228;53.222;7.446;2023-10-31T13:09:22;11.70;99.90
36186;DHT22;22228;53.222;7.446;2023-10-31T13:11:42;11.60;99.90
36186;DHT22;22228;53.222;7.446;2023-10-31T13:14:03;11.70;99.90
36186;DHT22;22228;53.222;7.446;2023-10-31T13:16:23;11.70;99.90
36186;DHT22;22228;53.222;7.446;2023-10-31T13:18:46;11.70;99.90
36186;DHT22;22228;53.222;7.446;2023-10-31T13:21:06;11.70;99.90
36186;DHT22;22228;53.222;7.446;2023-10-31T13:23:29;11.50;99.90
36186;DHT22;22228;53.222;7.446;2023-10-31T13:25:49;11.50;99.90
36186;DHT22;22228;53.222;7.446;2023-10-31T13:28:10;11.60;99.90
36186;DHT22;22228;53.222;7.446;2023-10-31T13:30:31;11.60;99.90
36186;DHT22;22228;53.222;7.446;2023-10-31T13:32:52;11.60;99.90
36186;DHT22;22228;53.222;7.446;2023-10-31T13:35:13;11.60;99.90
36186;DHT22;22228;53.222;7.446;2023-10-31T13:37:34;11.50;99.90
36186;DHT22;22228;53.222;7.446;2023-10-31T13:39:56;11.40;99.90
36186;DHT22;22228;53.222;7.446;2023-10-31T13:42:16;11.30;99.90
36186;DHT22;22228;53.222;7.446;2023-10-31T13:44:37;11.30;99.90
36186;DHT22;22228;53.222;7.446;2023-10-31T13:46:57;11.30;99.90
36186;DHT22;22228;53.222;7.446;2023-10-31T13:49:18;11.30;99.90
36186;DHT22;22228;53.222;7.446;2023-10-31T13:51:38;11.30;99.90
36186;DHT22;22228;53.222;7.446;2023-10-31T13:53:59;11.30;99.90
36186;DHT22;22228;53.222;7.446;2023-10-31T13:56:20;11.30;99.90
36186;DHT22;22228;53.222;7.446;2023-10-31T13:58:41;11.40;99.90
36186;DHT22;22228;53.222;7.446;2023-10-31T14:01:02;11.50;99.90
36186;DHT22;22228;53.222;7.446;2023-10-31T14:03:22;11.50;99.90
36186;DHT22;22228;53.222;7.446;2023-10-31T14:05:43;11.50;99.90
36186;DHT22;22228;53.222;7.446;2023-10-31T14:08:04;11.50;99.90
36186;DHT22;22228;53.222;7.446;2023-10-31T14:10:25;11.40;99.90
36186;DHT22;22228;53.222;7.446;2023-10-31T14:12:47;11.40;99.90
36186;DHT22;22228;53.222;7.446;2023-10-31T14:15:08;11.30;99.90
36186;DHT22;22228;53.222;7.446;2023-10-31T14:17:30;11.30;99.90
36186;DHT22;22228;53.222;7.446;2023-10-31T14:19:50;11.40;99.90
36186;DHT22;22228;53.222;7.446;2023-10-31T14:22:12;11.40;99.90
36186;DHT22;22228;53.222;7.446;2023-10-31T14:24:33;11.40;99.90
36186;DHT22;22228;53.222;7.446;2023-10-31T14:26:54;11.50;99.90
36186;DHT22;22228;53.222;7.446;2023-10-31T14:29:16;11.50;99.90
36186;DHT22;22228;53.222;7.446;2023-10-31T14:31:40;11.40;99.90
36186;DHT22;22228;53.222;7.446;2023-10-31T14:34:01;11.40;99.90
36186;DHT22;22228;53.222;7.446;2023-10-31T14:36:21;11.40;99.90
36186;DHT22;22228;53.222;7.446;2023-10-31T14:38:42;11.30;99.90
36186;DHT22;22228;53.222;7.446;2023-10-31T14:41:03;11.30;99.90
36186;DHT22;22228;53.222;7.446;2023-10-31T14:43:24;11.30;99.90
36186;DHT22;22228;53.222;7.446;2023-10-31T14:45:46;11.30;99.90
36186;DHT22;22228;53.222;7.446;2023-10-31T14:48:06;11.30;99.90
36186;DHT22;22228;53.222;7.446;2023-10-31T14:50:27;11.20;99.90
36186;DHT22;22228;53.222;7.446;2023-10-31T14:52:47;11.20;99.90
36186;DHT22;22228;53.222;7.446;2023-10-31T14:55:08;11.10;99.90
36186;DHT22;22228;53.222;7.446;2023-10-31T14:57:29;11.10;99.90
36186;DHT22;22228;53.222;7.446;2023-10-31T14:59:49;11.00;99.90
36186;DHT22;22228;53.222;7.446;2023-10-31T15:02:11;11.00;99.90
36186;DHT22;22228;53.222;7.446;2023-10-31T15:04:31;11.00;99.90
36186;DHT22;22228;53.222;7.446;2023-10-31T15:06:51;10.90;99.90
36186;DHT22;22228;53.222;7.446;2023-10-31T15:09:12;10.90;99.90
36186;DHT22;22228;53.222;7.446;2023-10-31T15:11:32;10.80;99.90
36186;DHT22;22228;53.222;7.446;2023-10-31T15:13:53;10.80;99.90
36186;DHT22;22228;53.222;7.446;2023-10-31T15:16:13;10.80;99.90
36186;DHT22;22228;53.222;7.446;2023-10-31T15:18:35;10.80;99.90
36186;DHT22;22228;53.222;7.446;2023-10-31T15:20:56;10.60;99.90
36186;DHT22;22228;53.222;7.446;2023-10-31T15:23:18;10.60;99.90
36186;DHT22;22228;53.222;7.446;2023-10-31T15:25:38;10.60;99.90
36186;DHT22;22228;53.222;7.446;2023-10-31T15:27:59;10.60;99.90
36186;DHT22;22228;53.222;7.446;2023-10-31T15:30:19;10.50;99.90
36186;DHT22;22228;53.222;7.446;2023-10-31T15:32:40;10.40;99.90
36186;DHT22;22228;53.222;7.446;2023-10-31T15:35:03;10.40;99.90
36186;DHT22;22228;53.222;7.446;2023-10-31T15:37:24;10.30;99.90
36186;DHT22;22228;53.222;7.446;2023-10-31T15:39:45;10.30;99.90
36186;DHT22;22228;53.222;7.446;2023-10-31T15:42:07;10.30;99.90
36186;DHT22;22228;53.222;7.446;2023-10-31T15:44:28;10.30;99.90
36186;DHT22;22228;53.222;7.446;2023-10-31T15:46:48;10.20;99.90
36186;DHT22;22228;53.222;7.446;2023-10-31T15:49:09;10.20;99.90
36186;DHT22;22228;53.222;7.446;2023-10-31T15:51:31;10.20;99.90
36186;DHT22;22228;53.222;7.446;2023-10-31T15:53:52;10.20;99.90
36186;DHT22;22228;53.222;7.446;2023-10-31T15:56:13;10.20;99.90
36186;DHT22;22228;53.222;7.446;2023-10-31T15:58:33;10.20;99.90
36186;DHT22;22228;53.222;7.446;2023-10-31T16:00:54;10.20;99.90
36186;DHT22;22228;53.222;7.446;2023-10-31T16:03:15;10.10;99.90
36186;DHT22;22228;53.222;7.446;2023-10-31T16:05:36;10.10;99.90
36186;DHT22;22228;53.222;7.446;2023-10-31T16:07:58;10.10;99.90
36186;DHT22;22228;53.222;7.446;2023-10-31T16:10:19;10.10;99.90
36186;DHT22;22228;53.222;7.446;2023-10-31T16:12:39;10.10;99.90
36186;DHT22;22228;53.222;7.446;2023-10-31T16:15:00;10.00;99.90
36186;DHT22;22228;53.222;7.446;2023-10-31T16:17:21;10.00;99.90
36186;DHT22;22228;53.222;7.446;2023-10-31T16:19:42;10.00;99.90
36186;DHT22;22228;53.222;7.446;2023-10-31T16:22:03;10.00;99.90
36186;DHT22;22228;53.222;7.446;2023-10-31T16:24:25;10.00;99.90
36186;DHT22;22228;53.222;7.446;2023-10-31T16:26:45;10.00;99.90
36186;DHT22;22228;53.222;7.446;2023-10-31T16:29:06;10.00;99.90
36186;DHT22;22228;53.222;7.446;2023-10-31T16:31:33;9.90;99.90
36186;DHT22;22228;53.222;7.446;2023-10-31T16:33:53;9.90;99.90
36186;DHT22;22228;53.222;7.446;2023-10-31T16:36:14;9.80;99.90
36186;DHT22;22228;53.222;7.446;2023-10-31T16:38:35;9.80;99.90
36186;DHT22;22228;53.222;7.446;2023-10-31T16:40:56;9.80;99.90
36186;DHT22;22228;53.222;7.446;2023-10-31T16:43:20;9.80;99.90
36186;DHT22;22228;53.222;7.446;2023-10-31T16:45:40;9.80;99.90
36186;DHT22;22228;53.222;7.446;2023-10-31T16:48:01;9.80;99.90
36186;DHT22;22228;53.222;7.446;2023-10-31T16:50:22;9.80;99.90
36186;DHT22;22228;53.222;7.446;2023-10-31T16:52:42;9.70;99.90
36186;DHT22;22228;53.222;7.446;2023-10-31T16:55:03;9.70;99.90
36186;DHT22;22228;53.222;7.446;2023-10-31T16:57:25;9.70;99.90
36186;DHT22;22228;53.222;7.446;2023-10-31T16:59:46;9.60;99.90
36186;DHT22;22228;53.222;7.446;2023-10-31T17:02:06;9.60;99.90
36186;DHT22;22228;53.222;7.446;2023-10-31T17:04:27;9.50;99.90
36186;DHT22;22228;53.222;7.446;2023-10-31T17:06:47;9.50;99.90
36186;DHT22;22228;53.222;7.446;2023-10-31T17:09:08;9.40;99.90
36186;DHT22;22228;53.222;7.446;2023-10-31T17:11:28;9.40;99.90
36186;DHT22;22228;53.222;7.446;2023-10-31T17:13:50;9.40;99.90
36186;DHT22;22228;53.222;7.446;2023-10-31T17:16:11;9.40;99.90
36186;DHT22;22228;53.222;7.446;2023-10-31T17:18:32;9.40;99.90
36186;DHT22;22228;53.222;7.446;2023-10-31T17:20:53;9.40;99.90
36186;DHT22;22228;53.222;7.446;2023-10-31T17:23:13;9.40;99.90
36186;DHT22;22228;53.222;7.446;2023-10-31T17:25:34;9.40;99.90
36186;DHT22;22228;53.222;7.446;2023-10-31T17:27:55;9.40;99.90
36186;DHT22;22228;53.222;7.446;2023-10-31T17:30:18;9.50;99.90
36186;DHT22;22228;53.222;7.446;2023-10-31T17:32:39;9.50;99.90
36186;DHT22;22228;53.222;7.446;2023-10-31T17:34:59;9.50;99.90
36186;DHT22;22228;53.222;7.446;2023-10-31T17:37:20;9.50;99.90
36186;DHT22;22228;53.222;7.446;2023-10-31T17:39:40;9.50;99.90